createdAt,value
2023-05-22T00:01:02.198Z,50.10
2023-05-22T00:03:38.756Z,50.30
2023-05-22T00:06:15.030Z,50.30
2023-05-22T00:08:50.976Z,50.60
2023-05-22T00:11:27.128Z,51.20
2023-05-22T00:14:03.014Z,51.20
2023-05-22T00:16:39.758Z,51.40
2023-05-22T00:19:17.185Z,51.50
2023-05-22T00:21:54.288Z,51.60
2023-05-22T00:24:30.232Z,51.60
2023-05-22T00:27:06.229Z,51.70
2023-05-22T00:29:42.494Z,52.10
2023-05-22T00:32:18.406Z,52.80
2023-05-22T00:34:54.517Z,53.00
2023-05-22T00:37:30.461Z,53.10
2023-05-22T00:40:08.536Z,53.40
2023-05-22T00:42:44.763Z,53.60
2023-05-22T00:45:23.452Z,53.60
2023-05-22T00:47:59.397Z,53.70
2023-05-22T00:50:35.420Z,53.80
2023-05-22T00:53:11.691Z,54.20
2023-05-22T00:55:48.312Z,54.40
2023-05-22T00:58:27.048Z,54.80
2023-05-22T01:01:03.173Z,55.10
2023-05-22T01:03:45.272Z,55.60
2023-05-22T01:06:24.336Z,55.80
2023-05-22T01:09:00.302Z,56.30
2023-05-22T01:12:11.254Z,56.20
2023-05-22T01:15:22.587Z,56.10
2023-05-22T01:18:20.737Z,56.40
2023-05-22T01:21:18.336Z,56.90
2023-05-22T01:24:43.050Z,57.10
2023-05-22T01:28:16.560Z,57.40
2023-05-22T01:31:11.479Z,57.90
2023-05-22T01:33:54.934Z,58.40
2023-05-22T01:36:37.328Z,58.90
2023-05-22T01:39:14.879Z,59.00
2023-05-22T01:41:50.971Z,59.20
2023-05-22T01:44:26.881Z,59.20
2023-05-22T01:47:05.828Z,59.50
2023-05-22T01:49:42.767Z,59.70
2023-05-22T01:52:35.974Z,60.00
2023-05-22T01:55:21.211Z,60.10
2023-05-22T01:58:12.942Z,60.50
2023-05-22T02:00:51.593Z,60.70
2023-05-22T02:03:33.787Z,60.90
2023-05-22T02:06:13.979Z,61.30
2023-05-22T02:08:51.406Z,61.50
2023-05-22T02:11:29.324Z,61.50
2023-05-22T02:14:06.072Z,62.00
2023-05-22T02:16:42.383Z,62.50
2023-05-22T02:19:18.665Z,62.90
2023-05-22T02:21:55.926Z,63.10
2023-05-22T02:24:32.754Z,63.30
2023-05-22T02:27:09.597Z,63.50
2023-05-22T02:29:45.560Z,63.70
2023-05-22T02:32:21.509Z,64.00
2023-05-22T02:34:58.590Z,64.00
2023-05-22T02:37:35.129Z,64.40
2023-05-22T02:40:11.707Z,64.40
2023-05-22T02:42:48.440Z,64.70
2023-05-22T02:45:25.457Z,65.00
2023-05-22T02:48:03.547Z,66.00
2023-05-22T02:50:41.100Z,65.70
2023-05-22T02:53:17.290Z,65.90
2023-05-22T02:55:53.207Z,66.00
2023-05-22T02:58:29.152Z,66.30
2023-05-22T03:01:09.058Z,66.70
2023-05-22T03:03:45.176Z,66.90
2023-05-22T03:06:21.965Z,67.20
2023-05-22T03:08:57.986Z,67.40
2023-05-22T03:11:34.329Z,67.60
2023-05-22T03:14:10.306Z,67.80
2023-05-22T03:16:46.490Z,67.80
2023-05-22T03:19:23.339Z,67.90
2023-05-22T03:21:59.316Z,68.10
2023-05-22T03:24:35.317Z,68.20
2023-05-22T03:27:16.625Z,68.30
2023-05-22T03:29:52.984Z,68.40
2023-05-22T03:32:30.567Z,68.40
2023-05-22T03:35:07.305Z,68.30
2023-05-22T03:37:43.292Z,68.10
2023-05-22T03:40:19.277Z,68.30
2023-05-22T03:42:55.369Z,68.50
2023-05-22T03:45:31.995Z,68.70
2023-05-22T03:48:10.678Z,68.70
2023-05-22T03:50:47.011Z,68.90
2023-05-22T03:53:23.151Z,68.80
2023-05-22T03:55:59.364Z,69.00
2023-05-22T03:58:35.535Z,69.50
2023-05-22T04:01:13.718Z,69.40
2023-05-22T04:03:49.771Z,69.40
2023-05-22T04:06:26.636Z,69.40
2023-05-22T04:09:02.805Z,69.10
2023-05-22T04:11:39.965Z,68.70
2023-05-22T04:14:16.114Z,68.50
2023-05-22T04:16:52.152Z,68.20
2023-05-22T04:19:30.352Z,67.60
2023-05-22T04:22:07.010Z,67.10
2023-05-22T04:24:43.441Z,66.60
2023-05-22T04:27:22.609Z,66.00
2023-05-22T04:30:02.360Z,65.50
2023-05-22T04:32:38.477Z,64.80
2023-05-22T04:35:18.539Z,64.10
2023-05-22T04:37:55.938Z,63.70
2023-05-22T04:40:33.764Z,63.60
2023-05-22T04:43:10.006Z,63.60
2023-05-22T04:45:46.365Z,63.50
2023-05-22T04:48:23.080Z,63.30
2023-05-22T04:50:58.976Z,63.40
2023-05-22T04:53:35.387Z,63.60
2023-05-22T04:56:13.113Z,64.00
2023-05-22T04:58:50.994Z,63.90
2023-05-22T05:01:27.792Z,63.80
2023-05-22T05:04:04.581Z,63.80
2023-05-22T05:06:40.530Z,63.60
2023-05-22T05:09:16.450Z,63.70
2023-05-22T05:11:53.102Z,63.40
2023-05-22T05:14:29.171Z,63.00
2023-05-22T05:17:05.367Z,62.50
2023-05-22T05:19:42.452Z,62.10
2023-05-22T05:22:18.607Z,61.60
2023-05-22T05:24:54.576Z,61.30
2023-05-22T05:27:31.073Z,60.90
2023-05-22T05:30:08.676Z,60.50
2023-05-22T05:32:58.257Z,60.20
2023-05-22T05:35:43.169Z,60.00
2023-05-22T05:38:21.156Z,59.70
2023-05-22T05:40:57.134Z,59.50
2023-05-22T05:43:33.548Z,59.50
2023-05-22T05:46:14.221Z,59.20
2023-05-22T05:48:50.745Z,59.40
2023-05-22T05:51:26.782Z,58.90
2023-05-22T05:54:03.041Z,58.90
2023-05-22T05:56:39.209Z,59.00
2023-05-22T05:59:15.397Z,58.50
2023-05-22T06:02:09.984Z,57.90
2023-05-22T06:04:48.444Z,56.80
2023-05-22T06:07:28.533Z,55.70
2023-05-22T06:10:06.733Z,54.50
2023-05-22T06:12:50.957Z,53.30
2023-05-22T06:15:27.075Z,51.90
2023-05-22T06:18:03.937Z,50.90
2023-05-22T06:20:40.316Z,50.00
2023-05-22T06:23:16.674Z,49.40
2023-05-22T06:25:52.624Z,48.80
2023-05-22T06:28:29.082Z,48.30
2023-05-22T06:31:05.634Z,47.70
2023-05-22T06:33:43.412Z,47.40
2023-05-22T06:36:19.686Z,47.10
2023-05-22T06:38:55.754Z,46.80
2023-05-22T06:41:57.896Z,46.60
2023-05-22T06:44:33.930Z,46.40
2023-05-22T06:47:13.688Z,46.30
2023-05-22T06:49:50.837Z,46.10
2023-05-22T06:52:26.839Z,45.90
2023-05-22T06:55:05.675Z,45.60
2023-05-22T06:57:52.424Z,45.40
2023-05-22T07:00:29.469Z,45.20
2023-05-22T07:03:13.932Z,45.20
2023-05-22T07:05:59.984Z,45.10
2023-05-22T07:08:36.516Z,44.70
2023-05-22T07:11:13.070Z,44.40
2023-05-22T07:13:49.050Z,44.50
2023-05-22T07:16:26.029Z,44.10
2023-05-22T07:19:03.296Z,43.90
2023-05-22T07:21:40.486Z,44.00
2023-05-22T07:24:17.465Z,44.20
2023-05-22T07:26:53.757Z,44.40
2023-05-22T07:29:30.003Z,44.80
2023-05-22T07:32:08.509Z,44.70
2023-05-22T07:34:45.781Z,44.60
2023-05-22T07:37:22.268Z,44.40
2023-05-22T07:39:59.069Z,44.20
2023-05-22T07:42:35.383Z,43.70
2023-05-22T07:45:13.165Z,43.60
2023-05-22T07:47:49.305Z,43.40
2023-05-22T07:50:30.430Z,43.00
2023-05-22T07:53:06.545Z,43.30
2023-05-22T07:55:46.240Z,43.00
2023-05-22T07:58:24.275Z,42.90
2023-05-22T08:01:01.866Z,42.50
2023-05-22T08:03:38.108Z,42.30
2023-05-22T08:06:16.177Z,42.20
2023-05-22T08:08:54.662Z,42.10
2023-05-22T08:11:30.809Z,42.40
2023-05-22T08:14:07.638Z,42.30
2023-05-22T08:16:43.769Z,42.00
2023-05-22T08:19:19.815Z,41.80
2023-05-22T08:21:58.232Z,41.80
2023-05-22T08:24:34.242Z,41.50
2023-05-22T08:27:10.406Z,41.30
2023-05-22T08:29:46.450Z,41.20
2023-05-22T08:32:22.416Z,40.70
2023-05-22T08:34:59.405Z,40.60
2023-05-22T08:37:35.894Z,40.60
2023-05-22T08:40:13.050Z,40.50
2023-05-22T08:42:51.530Z,40.20
2023-05-22T08:45:29.962Z,39.90
2023-05-22T08:48:07.087Z,39.70
2023-05-22T08:50:43.705Z,39.70
2023-05-22T08:53:23.948Z,39.80
2023-05-22T08:56:00.032Z,39.80
2023-05-22T08:58:37.694Z,39.90
2023-05-22T09:01:14.524Z,40.10
2023-05-22T09:03:51.689Z,39.70
2023-05-22T09:06:31.868Z,39.40
2023-05-22T09:09:07.936Z,39.20
2023-05-22T09:11:44.262Z,39.00
2023-05-22T09:14:20.266Z,38.90
2023-05-22T09:16:56.303Z,38.90
2023-05-22T09:19:32.571Z,38.60
2023-05-22T09:22:08.655Z,38.50
2023-05-22T09:24:47.236Z,38.00
2023-05-22T09:27:23.538Z,37.70
2023-05-22T09:29:59.482Z,37.50
2023-05-22T09:32:36.026Z,37.30
2023-05-22T09:35:12.468Z,36.80
2023-05-22T09:37:50.978Z,36.60
2023-05-22T09:40:29.296Z,36.70
2023-05-22T09:43:09.503Z,36.10
2023-05-22T09:45:45.789Z,36.20
2023-05-22T09:48:21.780Z,36.10
2023-05-22T09:51:01.039Z,35.80
2023-05-22T09:53:39.802Z,35.70
2023-05-22T09:56:27.209Z,35.50
2023-05-22T09:59:13.900Z,35.70
2023-05-22T10:01:50.862Z,35.70
2023-05-22T10:04:32.706Z,35.90
2023-05-22T10:07:11.605Z,36.00
2023-05-22T10:09:59.821Z,36.30
2023-05-22T10:12:46.547Z,36.30
2023-05-22T10:15:23.301Z,36.10
2023-05-22T10:17:59.614Z,36.20
2023-05-22T10:20:36.123Z,36.20
2023-05-22T10:23:19.275Z,36.20
2023-05-22T10:25:55.968Z,36.30
2023-05-22T10:28:42.121Z,36.40
2023-05-22T10:31:32.164Z,36.30
2023-05-22T10:34:38.200Z,36.00
2023-05-22T10:37:43.607Z,35.90
2023-05-22T10:40:28.973Z,35.40
2023-05-22T10:43:05.859Z,35.70
2023-05-22T10:45:45.507Z,35.20
2023-05-22T10:48:23.228Z,35.20
2023-05-22T10:51:00.048Z,35.40
2023-05-22T10:53:36.926Z,35.10
2023-05-22T10:56:14.956Z,35.00
2023-05-22T10:59:05.254Z,34.80
2023-05-22T11:01:41.397Z,35.00
2023-05-22T11:04:30.714Z,35.10
2023-05-22T11:07:08.607Z,35.30
2023-05-22T11:09:48.750Z,35.30
2023-05-22T11:12:28.317Z,35.40
2023-05-22T11:15:11.792Z,35.30
2023-05-22T11:17:51.844Z,35.10
2023-05-22T11:20:30.622Z,34.50
2023-05-22T11:23:08.207Z,34.70
2023-05-22T11:25:44.251Z,33.90
2023-05-22T11:28:20.457Z,33.80
2023-05-22T11:30:57.458Z,33.80
2023-05-22T11:33:33.606Z,34.00
2023-05-22T11:36:09.687Z,33.90
2023-05-22T11:38:45.705Z,33.60
2023-05-22T11:41:21.638Z,33.70
2023-05-22T11:43:57.525Z,33.60
2023-05-22T11:46:33.689Z,33.50
2023-05-22T11:49:13.196Z,33.60
2023-05-22T11:51:49.787Z,33.40
2023-05-22T11:54:25.981Z,33.30
2023-05-22T11:57:08.079Z,33.30
2023-05-22T11:59:47.939Z,33.20
2023-05-22T12:02:23.972Z,33.30
2023-05-22T12:04:59.993Z,33.20
2023-05-22T12:07:36.059Z,33.00
2023-05-22T12:10:14.615Z,32.60
2023-05-22T12:12:50.649Z,32.10
2023-05-22T12:15:27.135Z,32.20
2023-05-22T12:18:03.088Z,32.30
2023-05-22T12:20:46.247Z,32.40
2023-05-22T12:23:26.598Z,32.80
2023-05-22T12:26:08.398Z,32.70
2023-05-22T12:28:44.696Z,32.20
2023-05-22T12:31:22.699Z,32.30
2023-05-22T12:33:58.608Z,32.10
2023-05-22T12:36:39.461Z,31.80
2023-05-22T12:39:19.314Z,31.40
2023-05-22T12:41:55.466Z,31.70
2023-05-22T12:44:31.488Z,31.90
2023-05-22T12:47:07.537Z,31.30
2023-05-22T12:49:43.498Z,31.00
2023-05-22T12:52:19.437Z,31.20
2023-05-22T12:54:55.344Z,30.90
2023-05-22T12:57:31.292Z,30.70
2023-05-22T13:00:08.150Z,30.80
2023-05-22T13:02:44.147Z,30.10
2023-05-22T13:05:20.821Z,30.00
2023-05-22T13:07:56.758Z,30.00
2023-05-22T13:10:32.681Z,29.70
2023-05-22T13:13:08.653Z,29.40
2023-05-22T13:15:45.394Z,29.00
2023-05-22T13:18:22.358Z,29.00
2023-05-22T13:21:00.023Z,29.20
2023-05-22T13:23:35.927Z,29.40
2023-05-22T13:26:11.960Z,29.30
2023-05-22T13:28:47.871Z,29.50
2023-05-22T13:31:23.766Z,28.90
2023-05-22T13:34:01.603Z,28.70
2023-05-22T13:36:38.965Z,28.70
2023-05-22T13:39:14.962Z,28.70
2023-05-22T13:41:53.038Z,28.40
2023-05-22T13:44:29.314Z,28.20
2023-05-22T13:47:05.365Z,27.90
2023-05-22T13:49:41.473Z,27.00
2023-05-22T13:52:17.608Z,26.40
2023-05-22T13:54:53.582Z,26.70
2023-05-22T13:57:29.545Z,26.80
2023-05-22T14:00:06.855Z,26.40
2023-05-22T14:02:43.246Z,26.60
2023-05-22T14:05:19.383Z,26.40
2023-05-22T14:07:56.744Z,26.40
2023-05-22T14:10:34.360Z,26.70
2023-05-22T14:13:10.248Z,26.60
2023-05-22T14:15:49.181Z,25.60
2023-05-22T14:18:25.211Z,25.80
2023-05-22T14:21:02.710Z,25.80
2023-05-22T14:23:41.174Z,26.60
2023-05-22T14:26:17.560Z,26.50
2023-05-22T14:28:54.052Z,26.60
2023-05-22T14:31:31.198Z,26.30
2023-05-22T14:34:07.284Z,26.30
2023-05-22T14:36:44.329Z,26.10
2023-05-22T14:39:20.338Z,26.00
2023-05-22T14:41:56.784Z,25.90
2023-05-22T14:44:32.816Z,26.20
2023-05-22T14:47:08.838Z,26.70
2023-05-22T14:49:44.946Z,26.50
2023-05-22T14:52:21.100Z,25.80
2023-05-22T14:54:57.059Z,26.00
2023-05-22T14:57:34.544Z,26.10
2023-05-22T15:00:13.399Z,25.90
2023-05-22T15:02:49.419Z,26.60
2023-05-22T15:05:26.959Z,26.60
2023-05-22T15:08:03.122Z,26.50
2023-05-22T15:10:39.195Z,26.60
2023-05-22T15:13:15.418Z,26.70
2023-05-22T15:15:51.480Z,26.80
2023-05-22T15:18:27.654Z,27.00
2023-05-22T15:21:03.799Z,26.60
2023-05-22T15:23:39.913Z,26.50
2023-05-22T15:26:16.076Z,26.60
2023-05-22T15:28:52.286Z,26.50
2023-05-22T15:31:31.727Z,26.70
2023-05-22T15:34:15.856Z,26.30
2023-05-22T15:36:52.253Z,25.90
2023-05-22T15:39:28.353Z,25.80
2023-05-22T15:42:06.775Z,25.90
2023-05-22T15:44:43.261Z,25.70
2023-05-22T15:47:19.389Z,25.50
2023-05-22T15:49:55.427Z,25.30
2023-05-22T15:52:33.552Z,25.20
2023-05-22T15:55:09.831Z,24.80
2023-05-22T15:57:45.942Z,25.10
2023-05-22T16:00:22.008Z,24.50
2023-05-22T16:02:58.319Z,24.30
2023-05-22T16:05:39.455Z,24.20
2023-05-22T16:08:16.605Z,23.60
2023-05-22T16:10:54.421Z,23.40
2023-05-22T16:13:30.746Z,23.40
2023-05-22T16:16:07.593Z,23.40
2023-05-22T16:18:44.106Z,23.30
2023-05-22T16:21:20.560Z,23.20
2023-05-22T16:23:57.616Z,23.00
2023-05-22T16:26:33.907Z,23.10
2023-05-22T16:29:10.055Z,22.70
2023-05-22T16:31:46.557Z,23.00
2023-05-22T16:34:22.777Z,23.10
2023-05-22T16:36:58.815Z,23.40
2023-05-22T16:39:34.873Z,23.60
2023-05-22T16:42:11.065Z,23.80
2023-05-22T16:44:47.285Z,23.90
2023-05-22T16:47:23.545Z,24.10
2023-05-22T16:50:03.676Z,24.10
2023-05-22T16:52:41.026Z,24.30
2023-05-22T16:55:17.376Z,24.60
2023-05-22T16:57:54.094Z,24.70
2023-05-22T17:00:30.652Z,25.00
2023-05-22T17:03:08.247Z,25.20
2023-05-22T17:05:47.342Z,25.40
2023-05-22T17:08:23.478Z,25.80
2023-05-22T17:10:59.579Z,26.10
2023-05-22T17:13:36.565Z,26.40
2023-05-22T17:16:12.548Z,26.60
2023-05-22T17:18:48.805Z,26.90
2023-05-22T17:21:24.852Z,27.20
2023-05-22T17:24:00.935Z,27.30
2023-05-22T17:26:37.405Z,27.40
2023-05-22T17:29:14.423Z,27.60
2023-05-22T17:31:50.457Z,27.90
2023-05-22T17:34:26.413Z,27.60
2023-05-22T17:37:02.346Z,27.60
2023-05-22T17:39:39.082Z,27.90
2023-05-22T17:42:15.195Z,28.00
2023-05-22T17:44:51.173Z,28.10
2023-05-22T17:47:27.256Z,28.40
2023-05-22T17:50:03.394Z,28.70
2023-05-22T17:52:42.265Z,29.30
2023-05-22T17:55:18.879Z,29.80
2023-05-22T17:57:56.360Z,30.60
2023-05-22T18:00:32.273Z,30.40
2023-05-22T18:03:08.401Z,30.70
2023-05-22T18:05:45.207Z,31.20
2023-05-22T18:08:21.614Z,31.60
2023-05-22T18:10:58.951Z,32.00
2023-05-22T18:13:34.909Z,32.30
2023-05-22T18:16:11.544Z,32.70
2023-05-22T18:18:47.628Z,32.80
2023-05-22T18:21:24.397Z,32.70
2023-05-22T18:24:00.422Z,32.80
2023-05-22T18:26:36.334Z,32.70
2023-05-22T18:29:12.282Z,32.80
2023-05-22T18:31:48.399Z,33.00
2023-05-22T18:34:24.384Z,33.20
2023-05-22T18:37:00.412Z,33.50
2023-05-22T18:39:37.340Z,33.50
2023-05-22T18:42:14.232Z,33.60
2023-05-22T18:44:50.771Z,33.80
2023-05-22T18:47:26.896Z,33.90
2023-05-22T18:50:05.365Z,34.10
2023-05-22T18:52:41.956Z,34.20
2023-05-22T18:55:17.919Z,34.20
2023-05-22T18:57:53.894Z,34.40
2023-05-22T19:00:30.762Z,34.50
2023-05-22T19:03:06.817Z,34.60
2023-05-22T19:05:43.894Z,34.70
2023-05-22T19:08:20.326Z,34.90
2023-05-22T19:10:59.895Z,35.00
2023-05-22T19:13:36.485Z,35.00
2023-05-22T19:16:14.025Z,35.10
2023-05-22T19:18:50.276Z,35.10
2023-05-22T19:21:26.697Z,35.20
2023-05-22T19:24:04.091Z,35.30
2023-05-22T19:26:40.234Z,35.50
2023-05-22T19:29:16.231Z,35.60
2023-05-22T19:31:52.332Z,35.70
2023-05-22T19:34:28.317Z,35.60
2023-05-22T19:37:04.576Z,35.90
2023-05-22T19:39:40.676Z,35.90
2023-05-22T19:42:16.701Z,35.90
2023-05-22T19:44:52.748Z,36.00
2023-05-22T19:47:28.843Z,36.10
2023-05-22T19:50:05.942Z,36.10
2023-05-22T19:52:42.038Z,36.50
2023-05-22T19:55:18.047Z,36.40
2023-05-22T19:57:54.606Z,36.70
2023-05-22T20:00:31.750Z,36.70
2023-05-22T20:03:07.854Z,36.70
2023-05-22T20:05:43.852Z,36.80
2023-05-22T20:08:21.656Z,36.90
2023-05-22T20:10:57.630Z,36.90
2023-05-22T20:13:33.934Z,36.80
2023-05-22T20:16:12.662Z,36.90
2023-05-22T20:18:48.901Z,37.00
2023-05-22T20:21:24.882Z,37.00
2023-05-22T20:24:05.284Z,37.00
2023-05-22T20:26:41.778Z,37.10
2023-05-22T20:29:18.388Z,37.20
2023-05-22T20:31:56.555Z,37.30
2023-05-22T20:34:33.232Z,37.30
2023-05-22T20:37:10.141Z,37.50
2023-05-22T20:39:46.361Z,37.50
2023-05-22T20:42:22.853Z,37.60
2023-05-22T20:44:58.779Z,37.60
2023-05-22T20:47:36.170Z,37.70
2023-05-22T20:50:12.172Z,37.80
2023-05-22T20:52:48.113Z,38.00
2023-05-22T20:55:25.504Z,38.00
2023-05-22T20:58:01.701Z,38.00
2023-05-22T21:00:37.694Z,38.10
2023-05-22T21:03:13.645Z,38.10
2023-05-22T21:05:49.588Z,38.30
2023-05-22T21:08:25.528Z,38.30
2023-05-22T21:11:01.452Z,38.40
2023-05-22T21:13:37.374Z,38.60
2023-05-22T21:16:13.246Z,38.80
2023-05-22T21:18:49.221Z,38.80
2023-05-22T21:21:25.139Z,38.80
2023-05-22T21:24:01.111Z,38.90
2023-05-22T21:26:37.604Z,39.00
2023-05-22T21:29:13.663Z,38.90
2023-05-22T21:31:49.721Z,39.10
2023-05-22T21:34:25.715Z,39.00
2023-05-22T21:37:01.654Z,39.00
2023-05-22T21:39:37.580Z,38.90
2023-05-22T21:42:16.310Z,39.00
2023-05-22T21:44:52.255Z,39.10
2023-05-22T21:47:28.172Z,39.10
2023-05-22T21:50:04.505Z,39.20
2023-05-22T21:52:40.404Z,39.40
2023-05-22T21:55:16.422Z,39.50
2023-05-22T21:57:52.295Z,39.60
2023-05-22T22:00:29.553Z,40.00
2023-05-22T22:03:05.880Z,40.00
2023-05-22T22:05:41.995Z,40.00
2023-05-22T22:08:17.885Z,40.10
2023-05-22T22:10:54.364Z,40.30
2023-05-22T22:13:30.476Z,40.40
2023-05-22T22:16:06.513Z,40.50
2023-05-22T22:18:43.821Z,40.50
2023-05-22T22:22:16.390Z,40.80
2023-05-22T22:24:52.474Z,40.80
2023-05-22T22:27:28.426Z,41.00
2023-05-22T22:30:04.988Z,41.10
2023-05-22T22:32:41.034Z,40.80
2023-05-22T22:35:16.969Z,40.70
2023-05-22T22:37:52.915Z,40.70
2023-05-22T22:40:28.798Z,40.70
2023-05-22T22:43:04.846Z,40.80
2023-05-22T22:45:41.084Z,41.00
2023-05-22T22:48:17.340Z,41.20
2023-05-22T22:50:53.500Z,41.40
2023-05-22T22:53:29.388Z,41.50
2023-05-22T22:56:05.552Z,42.00
2023-05-22T22:58:41.453Z,42.60
2023-05-22T23:01:17.532Z,43.00
2023-05-22T23:03:53.546Z,43.40
2023-05-22T23:06:29.764Z,44.00
2023-05-22T23:09:05.682Z,44.50
2023-05-22T23:11:41.575Z,45.00
2023-05-22T23:14:17.834Z,45.50
2023-05-22T23:16:53.875Z,45.70
2023-05-22T23:19:29.822Z,46.80
2023-05-22T23:22:05.977Z,47.90
2023-05-22T23:24:41.902Z,48.70
2023-05-22T23:27:17.818Z,49.40
2023-05-22T23:29:53.774Z,50.20
2023-05-22T23:32:29.722Z,51.90
2023-05-22T23:35:06.112Z,52.90
2023-05-22T23:37:42.034Z,53.50
2023-05-22T23:40:17.958Z,54.50
2023-05-22T23:42:53.852Z,55.50
2023-05-22T23:45:29.801Z,56.60
2023-05-22T23:48:05.788Z,57.10
2023-05-22T23:50:41.933Z,58.90
2023-05-22T23:53:17.806Z,59.70
2023-05-22T23:55:53.756Z,60.00
2023-05-22T23:58:30.217Z,61.50
